sensor_id;sensor_type;location;lat;lon;timestamp;P1;durP1;ratioP1;P2;durP2;ratioP2
42192;SDS011;52467;40.114;18.306;2023-02-07T00:01:16;6.80;;;3.43;;
42192;SDS011;52467;40.114;18.306;2023-02-07T00:03:45;6.00;;;3.20;;
42192;SDS011;52467;40.114;18.306;2023-02-07T00:06:13;6.65;;;3.53;;
42192;SDS011;52467;40.114;18.306;2023-02-07T00:08:43;6.28;;;2.90;;
42192;SDS011;52467;40.114;18.306;2023-02-07T00:11:12;5.25;;;3.53;;
42192;SDS011;52467;40.114;18.306;2023-02-07T00:13:43;8.27;;;3.55;;
42192;SDS011;52467;40.114;18.306;2023-02-07T00:16:10;5.35;;;3.15;;
42192;SDS011;52467;40.114;18.306;2023-02-07T00:18:38;5.57;;;3.33;;
42192;SDS011;52467;40.114;18.306;2023-02-07T00:21:07;9.35;;;4.30;;
42192;SDS011;52467;40.114;18.306;2023-02-07T00:23:36;5.38;;;3.60;;
42192;SDS011;52467;40.114;18.306;2023-02-07T00:26:05;5.22;;;3.40;;
42192;SDS011;52467;40.114;18.306;2023-02-07T00:28:33;6.93;;;3.40;;
42192;SDS011;52467;40.114;18.306;2023-02-07T00:33:33;6.43;;;3.38;;
42192;SDS011;52467;40.114;18.306;2023-02-07T00:36:05;6.50;;;3.30;;
42192;SDS011;52467;40.114;18.306;2023-02-07T00:38:34;5.05;;;3.28;;
42192;SDS011;52467;40.114;18.306;2023-02-07T00:41:01;6.60;;;3.30;;
42192;SDS011;52467;40.114;18.306;2023-02-07T00:43:30;7.47;;;3.90;;
42192;SDS011;52467;40.114;18.306;2023-02-07T00:45:58;6.30;;;3.60;;
42192;SDS011;52467;40.114;18.306;2023-02-07T00:48:27;7.22;;;3.60;;
42192;SDS011;52467;40.114;18.306;2023-02-07T00:50:55;6.15;;;3.65;;
42192;SDS011;52467;40.114;18.306;2023-02-07T00:53:22;7.63;;;2.85;;
42192;SDS011;52467;40.114;18.306;2023-02-07T00:55:51;6.22;;;3.55;;
42192;SDS011;52467;40.114;18.306;2023-02-07T00:58:18;4.82;;;3.40;;
42192;SDS011;52467;40.114;18.306;2023-02-07T01:00:46;5.00;;;3.08;;
42192;SDS011;52467;40.114;18.306;2023-02-07T01:03:14;6.43;;;3.30;;
42192;SDS011;52467;40.114;18.306;2023-02-07T01:05:41;6.13;;;3.20;;
42192;SDS011;52467;40.114;18.306;2023-02-07T01:08:08;6.97;;;3.47;;
42192;SDS011;52467;40.114;18.306;2023-02-07T01:10:38;7.43;;;3.00;;
42192;SDS011;52467;40.114;18.306;2023-02-07T01:13:09;4.35;;;3.13;;
42192;SDS011;52467;40.114;18.306;2023-02-07T01:15:37;7.22;;;3.30;;
42192;SDS011;52467;40.114;18.306;2023-02-07T01:18:06;6.55;;;3.63;;
42192;SDS011;52467;40.114;18.306;2023-02-07T01:20:34;6.63;;;3.28;;
42192;SDS011;52467;40.114;18.306;2023-02-07T01:23:03;5.57;;;3.47;;
42192;SDS011;52467;40.114;18.306;2023-02-07T01:25:31;5.35;;;3.38;;
42192;SDS011;52467;40.114;18.306;2023-02-07T01:27:58;6.43;;;3.28;;
42192;SDS011;52467;40.114;18.306;2023-02-07T01:30:27;4.95;;;2.97;;
42192;SDS011;52467;40.114;18.306;2023-02-07T01:32:54;6.32;;;3.55;;
42192;SDS011;52467;40.114;18.306;2023-02-07T01:35:22;7.85;;;3.60;;
42192;SDS011;52467;40.114;18.306;2023-02-07T01:37:49;5.67;;;3.40;;
42192;SDS011;52467;40.114;18.306;2023-02-07T01:40:16;9.70;;;3.58;;
42192;SDS011;52467;40.114;18.306;2023-02-07T01:42:44;6.18;;;3.13;;
42192;SDS011;52467;40.114;18.306;2023-02-07T01:45:15;7.68;;;3.50;;
42192;SDS011;52467;40.114;18.306;2023-02-07T01:48:00;7.65;;;3.50;;
42192;SDS011;52467;40.114;18.306;2023-02-07T01:50:34;7.43;;;3.40;;
42192;SDS011;52467;40.114;18.306;2023-02-07T01:53:02;4.88;;;3.53;;
42192;SDS011;52467;40.114;18.306;2023-02-07T01:55:32;6.90;;;3.20;;
42192;SDS011;52467;40.114;18.306;2023-02-07T01:58:03;7.03;;;3.40;;
42192;SDS011;52467;40.114;18.306;2023-02-07T02:00:32;7.88;;;3.58;;
42192;SDS011;52467;40.114;18.306;2023-02-07T02:03:00;6.10;;;3.40;;
42192;SDS011;52467;40.114;18.306;2023-02-07T02:05:28;8.30;;;3.38;;
42192;SDS011;52467;40.114;18.306;2023-02-07T02:07:56;6.45;;;3.47;;
42192;SDS011;52467;40.114;18.306;2023-02-07T02:10:25;6.28;;;3.97;;
42192;SDS011;52467;40.114;18.306;2023-02-07T02:16:35;6.95;;;3.45;;
42192;SDS011;52467;40.114;18.306;2023-02-07T02:19:20;5.20;;;3.80;;
42192;SDS011;52467;40.114;18.306;2023-02-07T02:33:59;8.48;;;3.28;;
42192;SDS011;52467;40.114;18.306;2023-02-07T02:36:35;5.97;;;3.30;;
42192;SDS011;52467;40.114;18.306;2023-02-07T02:44:24;5.82;;;3.40;;
42192;SDS011;52467;40.114;18.306;2023-02-07T02:46:58;6.78;;;3.42;;
42192;SDS011;52467;40.114;18.306;2023-02-07T02:49:28;5.63;;;3.53;;
42192;SDS011;52467;40.114;18.306;2023-02-07T02:51:58;7.07;;;3.80;;
42192;SDS011;52467;40.114;18.306;2023-02-07T02:59:40;7.72;;;3.70;;
42192;SDS011;52467;40.114;18.306;2023-02-07T03:13:12;6.13;;;3.63;;
42192;SDS011;52467;40.114;18.306;2023-02-07T03:16:15;8.93;;;3.45;;
42192;SDS011;52467;40.114;18.306;2023-02-07T03:18:59;6.55;;;3.72;;
42192;SDS011;52467;40.114;18.306;2023-02-07T03:24:13;6.10;;;3.40;;
42192;SDS011;52467;40.114;18.306;2023-02-07T03:26:43;5.68;;;3.15;;
42192;SDS011;52467;40.114;18.306;2023-02-07T03:29:12;6.15;;;3.15;;
42192;SDS011;52467;40.114;18.306;2023-02-07T03:31:41;7.90;;;3.28;;
42192;SDS011;52467;40.114;18.306;2023-02-07T03:34:12;5.60;;;3.00;;
42192;SDS011;52467;40.114;18.306;2023-02-07T03:36:48;4.40;;;2.90;;
42192;SDS011;52467;40.114;18.306;2023-02-07T03:39:15;5.18;;;3.38;;
42192;SDS011;52467;40.114;18.306;2023-02-07T03:41:45;5.90;;;3.10;;
42192;SDS011;52467;40.114;18.306;2023-02-07T03:44:15;5.72;;;3.13;;
42192;SDS011;52467;40.114;18.306;2023-02-07T03:46:42;6.30;;;3.45;;
42192;SDS011;52467;40.114;18.306;2023-02-07T03:49:10;5.60;;;3.00;;
42192;SDS011;52467;40.114;18.306;2023-02-07T03:51:37;6.05;;;3.45;;
42192;SDS011;52467;40.114;18.306;2023-02-07T03:54:04;6.45;;;3.55;;
42192;SDS011;52467;40.114;18.306;2023-02-07T03:56:32;5.27;;;3.40;;
42192;SDS011;52467;40.114;18.306;2023-02-07T03:59:00;7.00;;;3.45;;
42192;SDS011;52467;40.114;18.306;2023-02-07T04:01:27;5.05;;;3.35;;
42192;SDS011;52467;40.114;18.306;2023-02-07T04:03:55;9.63;;;3.67;;
42192;SDS011;52467;40.114;18.306;2023-02-07T04:06:22;6.63;;;3.30;;
42192;SDS011;52467;40.114;18.306;2023-02-07T04:08:49;6.22;;;3.58;;
42192;SDS011;52467;40.114;18.306;2023-02-07T04:11:17;4.40;;;2.92;;
42192;SDS011;52467;40.114;18.306;2023-02-07T04:13:44;5.78;;;3.38;;
42192;SDS011;52467;40.114;18.306;2023-02-07T04:16:11;7.22;;;3.63;;
42192;SDS011;52467;40.114;18.306;2023-02-07T04:18:38;6.35;;;3.20;;
42192;SDS011;52467;40.114;18.306;2023-02-07T04:21:06;7.88;;;3.25;;
42192;SDS011;52467;40.114;18.306;2023-02-07T04:23:34;5.18;;;2.95;;
42192;SDS011;52467;40.114;18.306;2023-02-07T04:26:01;5.28;;;3.00;;
42192;SDS011;52467;40.114;18.306;2023-02-07T04:28:29;4.50;;;3.05;;
42192;SDS011;52467;40.114;18.306;2023-02-07T04:30:56;4.75;;;3.13;;
42192;SDS011;52467;40.114;18.306;2023-02-07T04:33:24;6.25;;;3.28;;
42192;SDS011;52467;40.114;18.306;2023-02-07T04:35:55;6.18;;;3.20;;
42192;SDS011;52467;40.114;18.306;2023-02-07T04:38:26;6.50;;;3.10;;
42192;SDS011;52467;40.114;18.306;2023-02-07T04:41:01;5.07;;;3.00;;
42192;SDS011;52467;40.114;18.306;2023-02-07T04:43:30;6.03;;;3.03;;
42192;SDS011;52467;40.114;18.306;2023-02-07T04:45:58;6.50;;;3.40;;
42192;SDS011;52467;40.114;18.306;2023-02-07T04:48:26;6.20;;;3.35;;
42192;SDS011;52467;40.114;18.306;2023-02-07T04:50:53;7.23;;;3.50;;
42192;SDS011;52467;40.114;18.306;2023-02-07T04:53:21;5.22;;;2.92;;
42192;SDS011;52467;40.114;18.306;2023-02-07T04:55:51;5.05;;;3.15;;
42192;SDS011;52467;40.114;18.306;2023-02-07T04:58:20;5.97;;;3.38;;
42192;SDS011;52467;40.114;18.306;2023-02-07T05:00:48;4.88;;;3.40;;
42192;SDS011;52467;40.114;18.306;2023-02-07T05:03:15;5.95;;;3.35;;
42192;SDS011;52467;40.114;18.306;2023-02-07T05:05:43;7.07;;;3.10;;
42192;SDS011;52467;40.114;18.306;2023-02-07T05:08:11;6.13;;;3.13;;
42192;SDS011;52467;40.114;18.306;2023-02-07T05:10:38;5.60;;;3.38;;
42192;SDS011;52467;40.114;18.306;2023-02-07T05:13:06;5.88;;;3.25;;
42192;SDS011;52467;40.114;18.306;2023-02-07T05:15:33;6.43;;;3.50;;
42192;SDS011;52467;40.114;18.306;2023-02-07T05:18:01;5.82;;;3.45;;
42192;SDS011;52467;40.114;18.306;2023-02-07T05:20:29;6.17;;;3.37;;
42192;SDS011;52467;40.114;18.306;2023-02-07T05:22:56;6.82;;;3.58;;
42192;SDS011;52467;40.114;18.306;2023-02-07T05:25:23;6.40;;;3.47;;
42192;SDS011;52467;40.114;18.306;2023-02-07T05:27:50;6.53;;;3.50;;
42192;SDS011;52467;40.114;18.306;2023-02-07T05:30:18;6.78;;;3.60;;
42192;SDS011;52467;40.114;18.306;2023-02-07T05:32:45;7.85;;;3.67;;
42192;SDS011;52467;40.114;18.306;2023-02-07T05:35:35;6.00;;;3.78;;
42192;SDS011;52467;40.114;18.306;2023-02-07T05:38:04;6.60;;;3.70;;
42192;SDS011;52467;40.114;18.306;2023-02-07T05:40:34;6.63;;;3.83;;
42192;SDS011;52467;40.114;18.306;2023-02-07T05:43:02;6.72;;;3.85;;
42192;SDS011;52467;40.114;18.306;2023-02-07T05:45:30;6.97;;;3.60;;
42192;SDS011;52467;40.114;18.306;2023-02-07T05:47:57;7.03;;;4.05;;
42192;SDS011;52467;40.114;18.306;2023-02-07T05:50:25;6.35;;;3.15;;
42192;SDS011;52467;40.114;18.306;2023-02-07T05:53:03;6.40;;;3.50;;
42192;SDS011;52467;40.114;18.306;2023-02-07T05:55:31;8.35;;;3.75;;
42192;SDS011;52467;40.114;18.306;2023-02-07T05:57:59;7.18;;;3.50;;
42192;SDS011;52467;40.114;18.306;2023-02-07T06:00:26;7.00;;;3.92;;
42192;SDS011;52467;40.114;18.306;2023-02-07T06:02:53;5.82;;;3.42;;
42192;SDS011;52467;40.114;18.306;2023-02-07T06:05:21;6.32;;;3.60;;
42192;SDS011;52467;40.114;18.306;2023-02-07T06:07:49;8.48;;;3.80;;
42192;SDS011;52467;40.114;18.306;2023-02-07T06:10:17;7.55;;;3.83;;
42192;SDS011;52467;40.114;18.306;2023-02-07T06:12:44;6.20;;;3.42;;
42192;SDS011;52467;40.114;18.306;2023-02-07T06:15:12;9.15;;;3.80;;
42192;SDS011;52467;40.114;18.306;2023-02-07T06:17:39;7.32;;;3.88;;
42192;SDS011;52467;40.114;18.306;2023-02-07T06:20:06;7.18;;;4.13;;
42192;SDS011;52467;40.114;18.306;2023-02-07T06:22:34;10.38;;;4.07;;
42192;SDS011;52467;40.114;18.306;2023-02-07T06:25:01;9.77;;;4.18;;
42192;SDS011;52467;40.114;18.306;2023-02-07T06:27:29;6.57;;;3.97;;
42192;SDS011;52467;40.114;18.306;2023-02-07T06:29:56;7.40;;;3.35;;
42192;SDS011;52467;40.114;18.306;2023-02-07T06:32:23;8.05;;;3.67;;
42192;SDS011;52467;40.114;18.306;2023-02-07T06:34:50;11.33;;;4.90;;
42192;SDS011;52467;40.114;18.306;2023-02-07T06:37:18;7.97;;;3.80;;
42192;SDS011;52467;40.114;18.306;2023-02-07T06:39:45;6.97;;;3.80;;
42192;SDS011;52467;40.114;18.306;2023-02-07T06:42:12;7.45;;;4.10;;
42192;SDS011;52467;40.114;18.306;2023-02-07T06:44:40;6.93;;;3.67;;
42192;SDS011;52467;40.114;18.306;2023-02-07T06:47:08;5.90;;;3.47;;
42192;SDS011;52467;40.114;18.306;2023-02-07T06:49:35;6.70;;;3.83;;
42192;SDS011;52467;40.114;18.306;2023-02-07T06:52:02;8.13;;;3.50;;
42192;SDS011;52467;40.114;18.306;2023-02-07T06:54:30;5.88;;;3.40;;
42192;SDS011;52467;40.114;18.306;2023-02-07T06:56:57;6.85;;;3.78;;
42192;SDS011;52467;40.114;18.306;2023-02-07T06:59:24;6.40;;;3.20;;
42192;SDS011;52467;40.114;18.306;2023-02-07T07:01:51;6.28;;;3.42;;
42192;SDS011;52467;40.114;18.306;2023-02-07T07:04:19;7.55;;;3.08;;
42192;SDS011;52467;40.114;18.306;2023-02-07T07:06:46;7.13;;;3.80;;
42192;SDS011;52467;40.114;18.306;2023-02-07T07:09:14;5.68;;;3.40;;
42192;SDS011;52467;40.114;18.306;2023-02-07T07:11:41;7.57;;;3.60;;
42192;SDS011;52467;40.114;18.306;2023-02-07T07:14:10;6.40;;;3.30;;
42192;SDS011;52467;40.114;18.306;2023-02-07T07:16:37;7.25;;;3.42;;
42192;SDS011;52467;40.114;18.306;2023-02-07T07:19:06;5.63;;;3.13;;
42192;SDS011;52467;40.114;18.306;2023-02-07T07:21:34;5.47;;;3.10;;
42192;SDS011;52467;40.114;18.306;2023-02-07T07:24:01;4.65;;;2.97;;
42192;SDS011;52467;40.114;18.306;2023-02-07T07:26:28;5.93;;;3.08;;
42192;SDS011;52467;40.114;18.306;2023-02-07T07:29:12;6.18;;;3.30;;
42192;SDS011;52467;40.114;18.306;2023-02-07T07:31:39;5.30;;;2.75;;
42192;SDS011;52467;40.114;18.306;2023-02-07T07:34:07;6.82;;;3.08;;
42192;SDS011;52467;40.114;18.306;2023-02-07T07:36:34;5.72;;;3.40;;
42192;SDS011;52467;40.114;18.306;2023-02-07T07:39:01;6.55;;;2.53;;
42192;SDS011;52467;40.114;18.306;2023-02-07T07:41:29;5.90;;;2.90;;
42192;SDS011;52467;40.114;18.306;2023-02-07T07:43:56;6.28;;;2.70;;
42192;SDS011;52467;40.114;18.306;2023-02-07T07:46:24;5.07;;;3.00;;
42192;SDS011;52467;40.114;18.306;2023-02-07T07:48:51;4.93;;;2.90;;
42192;SDS011;52467;40.114;18.306;2023-02-07T07:51:18;3.55;;;2.58;;
42192;SDS011;52467;40.114;18.306;2023-02-07T07:53:46;4.88;;;2.70;;
42192;SDS011;52467;40.114;18.306;2023-02-07T07:56:16;4.00;;;2.63;;
42192;SDS011;52467;40.114;18.306;2023-02-07T07:58:45;5.35;;;2.60;;
42192;SDS011;52467;40.114;18.306;2023-02-07T08:01:14;4.20;;;2.60;;
42192;SDS011;52467;40.114;18.306;2023-02-07T08:03:41;5.30;;;2.90;;
42192;SDS011;52467;40.114;18.306;2023-02-07T08:06:08;4.20;;;2.60;;
42192;SDS011;52467;40.114;18.306;2023-02-07T08:08:36;5.85;;;2.75;;
42192;SDS011;52467;40.114;18.306;2023-02-07T08:11:05;5.30;;;2.70;;
42192;SDS011;52467;40.114;18.306;2023-02-07T08:13:34;4.77;;;2.63;;
42192;SDS011;52467;40.114;18.306;2023-02-07T08:16:03;5.13;;;2.75;;
42192;SDS011;52467;40.114;18.306;2023-02-07T08:18:34;3.60;;;2.75;;
42192;SDS011;52467;40.114;18.306;2023-02-07T08:21:01;5.90;;;3.07;;
42192;SDS011;52467;40.114;18.306;2023-02-07T08:23:30;5.32;;;2.78;;
42192;SDS011;52467;40.114;18.306;2023-02-07T08:25:57;5.38;;;3.17;;
42192;SDS011;52467;40.114;18.306;2023-02-07T08:28:25;6.22;;;2.83;;
42192;SDS011;52467;40.114;18.306;2023-02-07T08:30:52;3.80;;;2.50;;
42192;SDS011;52467;40.114;18.306;2023-02-07T08:33:20;6.23;;;2.70;;
42192;SDS011;52467;40.114;18.306;2023-02-07T08:35:48;5.90;;;2.50;;
42192;SDS011;52467;40.114;18.306;2023-02-07T08:38:15;5.75;;;2.92;;
42192;SDS011;52467;40.114;18.306;2023-02-07T08:40:43;5.40;;;3.20;;
42192;SDS011;52467;40.114;18.306;2023-02-07T08:43:12;4.13;;;2.83;;
42192;SDS011;52467;40.114;18.306;2023-02-07T08:45:40;5.70;;;2.75;;
42192;SDS011;52467;40.114;18.306;2023-02-07T08:48:08;5.33;;;2.57;;
42192;SDS011;52467;40.114;18.306;2023-02-07T08:50:35;3.78;;;2.30;;
42192;SDS011;52467;40.114;18.306;2023-02-07T08:53:03;8.50;;;2.83;;
42192;SDS011;52467;40.114;18.306;2023-02-07T08:55:30;5.35;;;2.70;;
42192;SDS011;52467;40.114;18.306;2023-02-07T08:57:57;3.13;;;2.20;;
42192;SDS011;52467;40.114;18.306;2023-02-07T09:00:25;3.57;;;2.40;;
42192;SDS011;52467;40.114;18.306;2023-02-07T09:02:52;4.47;;;2.45;;
42192;SDS011;52467;40.114;18.306;2023-02-07T09:05:19;4.18;;;2.45;;
42192;SDS011;52467;40.114;18.306;2023-02-07T09:07:46;4.05;;;2.42;;
42192;SDS011;52467;40.114;18.306;2023-02-07T09:10:14;5.10;;;2.83;;
42192;SDS011;52467;40.114;18.306;2023-02-07T09:12:41;4.75;;;2.97;;
42192;SDS011;52467;40.114;18.306;2023-02-07T09:15:08;4.60;;;2.47;;
42192;SDS011;52467;40.114;18.306;2023-02-07T09:17:36;4.20;;;2.83;;
42192;SDS011;52467;40.114;18.306;2023-02-07T09:20:03;4.72;;;2.70;;
42192;SDS011;52467;40.114;18.306;2023-02-07T09:22:31;5.90;;;3.53;;
42192;SDS011;52467;40.114;18.306;2023-02-07T09:25:19;5.72;;;3.05;;
42192;SDS011;52467;40.114;18.306;2023-02-07T09:27:46;5.80;;;3.33;;
42192;SDS011;52467;40.114;18.306;2023-02-07T09:30:13;5.80;;;2.83;;
42192;SDS011;52467;40.114;18.306;2023-02-07T09:32:41;4.95;;;2.00;;
42192;SDS011;52467;40.114;18.306;2023-02-07T09:35:08;5.25;;;2.72;;
42192;SDS011;52467;40.114;18.306;2023-02-07T09:37:36;5.10;;;3.00;;
42192;SDS011;52467;40.114;18.306;2023-02-07T09:40:15;6.05;;;3.05;;
42192;SDS011;52467;40.114;18.306;2023-02-07T09:45:19;4.20;;;2.90;;
42192;SDS011;52467;40.114;18.306;2023-02-07T09:47:50;5.32;;;2.60;;
42192;SDS011;52467;40.114;18.306;2023-02-07T09:50:24;6.00;;;3.00;;
42192;SDS011;52467;40.114;18.306;2023-02-07T09:55:32;5.03;;;2.78;;
42192;SDS011;52467;40.114;18.306;2023-02-07T09:58:19;5.07;;;2.72;;
42192;SDS011;52467;40.114;18.306;2023-02-07T10:00:58;4.83;;;2.60;;
42192;SDS011;52467;40.114;18.306;2023-02-07T10:03:29;5.72;;;2.78;;
42192;SDS011;52467;40.114;18.306;2023-02-07T10:06:05;3.67;;;2.55;;
42192;SDS011;52467;40.114;18.306;2023-02-07T10:08:48;5.18;;;2.75;;
42192;SDS011;52467;40.114;18.306;2023-02-07T10:20:01;5.33;;;2.63;;
42192;SDS011;52467;40.114;18.306;2023-02-07T10:30:51;5.80;;;2.35;;
42192;SDS011;52467;40.114;18.306;2023-02-07T10:33:32;3.63;;;2.50;;
42192;SDS011;52467;40.114;18.306;2023-02-07T10:36:03;4.40;;;2.20;;
42192;SDS011;52467;40.114;18.306;2023-02-07T10:41:36;6.93;;;3.40;;
42192;SDS011;52467;40.114;18.306;2023-02-07T10:44:05;3.80;;;2.40;;
42192;SDS011;52467;40.114;18.306;2023-02-07T10:46:35;4.95;;;2.40;;
42192;SDS011;52467;40.114;18.306;2023-02-07T10:49:03;6.07;;;2.90;;
42192;SDS011;52467;40.114;18.306;2023-02-07T10:51:35;3.40;;;2.17;;
42192;SDS011;52467;40.114;18.306;2023-02-07T10:54:09;3.58;;;2.35;;
42192;SDS011;52467;40.114;18.306;2023-02-07T10:56:43;3.70;;;2.10;;
42192;SDS011;52467;40.114;18.306;2023-02-07T11:02:30;3.70;;;2.30;;
42192;SDS011;52467;40.114;18.306;2023-02-07T11:04:55;4.72;;;2.47;;
42192;SDS011;52467;40.114;18.306;2023-02-07T11:07:23;3.78;;;2.30;;
42192;SDS011;52467;40.114;18.306;2023-02-07T11:09:51;5.20;;;2.75;;
42192;SDS011;52467;40.114;18.306;2023-02-07T11:12:46;3.78;;;2.22;;
42192;SDS011;52467;40.114;18.306;2023-02-07T11:15:17;3.40;;;2.10;;
42192;SDS011;52467;40.114;18.306;2023-02-07T11:17:50;2.92;;;2.10;;
42192;SDS011;52467;40.114;18.306;2023-02-07T11:20:21;4.47;;;2.17;;
42192;SDS011;52467;40.114;18.306;2023-02-07T11:22:59;3.95;;;2.50;;
42192;SDS011;52467;40.114;18.306;2023-02-07T11:25:45;6.43;;;2.60;;
42192;SDS011;52467;40.114;18.306;2023-02-07T11:28:17;4.28;;;2.67;;
42192;SDS011;52467;40.114;18.306;2023-02-07T11:30:50;4.50;;;2.47;;
42192;SDS011;52467;40.114;18.306;2023-02-07T11:33:30;4.75;;;2.78;;
42192;SDS011;52467;40.114;18.306;2023-02-07T11:36:03;5.13;;;2.70;;
42192;SDS011;52467;40.114;18.306;2023-02-07T11:38:40;5.05;;;3.03;;
42192;SDS011;52467;40.114;18.306;2023-02-07T11:41:18;5.47;;;3.10;;
42192;SDS011;52467;40.114;18.306;2023-02-07T11:44:22;4.22;;;2.58;;
42192;SDS011;52467;40.114;18.306;2023-02-07T11:46:43;6.60;;;2.70;;
42192;SDS011;52467;40.114;18.306;2023-02-07T11:49:19;4.60;;;2.78;;
42192;SDS011;52467;40.114;18.306;2023-02-07T11:51:58;4.43;;;2.40;;
42192;SDS011;52467;40.114;18.306;2023-02-07T11:54:27;4.53;;;2.50;;
42192;SDS011;52467;40.114;18.306;2023-02-07T11:56:59;4.25;;;2.33;;
42192;SDS011;52467;40.114;18.306;2023-02-07T11:59:44;4.53;;;2.47;;
42192;SDS011;52467;40.114;18.306;2023-02-07T12:02:22;5.03;;;2.78;;
42192;SDS011;52467;40.114;18.306;2023-02-07T12:04:51;5.15;;;3.25;;
42192;SDS011;52467;40.114;18.306;2023-02-07T12:07:21;5.45;;;2.50;;
42192;SDS011;52467;40.114;18.306;2023-02-07T12:12:25;4.23;;;2.50;;
42192;SDS011;52467;40.114;18.306;2023-02-07T12:18:01;4.88;;;2.58;;
42192;SDS011;52467;40.114;18.306;2023-02-07T12:20:34;3.80;;;2.33;;
42192;SDS011;52467;40.114;18.306;2023-02-07T12:23:10;4.70;;;2.50;;
42192;SDS011;52467;40.114;18.306;2023-02-07T12:26:22;4.30;;;2.40;;
42192;SDS011;52467;40.114;18.306;2023-02-07T12:39:51;3.70;;;2.50;;
42192;SDS011;52467;40.114;18.306;2023-02-07T12:44:59;3.95;;;2.97;;
42192;SDS011;52467;40.114;18.306;2023-02-07T12:47:40;4.03;;;2.60;;
42192;SDS011;52467;40.114;18.306;2023-02-07T13:09:29;4.45;;;2.60;;
42192;SDS011;52467;40.114;18.306;2023-02-07T13:23:18;6.68;;;3.08;;
42192;SDS011;52467;40.114;18.306;2023-02-07T13:25:48;4.80;;;2.90;;
42192;SDS011;52467;40.114;18.306;2023-02-07T13:30:52;5.20;;;3.22;;
42192;SDS011;52467;40.114;18.306;2023-02-07T13:36:02;5.40;;;3.55;;
42192;SDS011;52467;40.114;18.306;2023-02-07T13:44:48;7.93;;;4.57;;
42192;SDS011;52467;40.114;18.306;2023-02-07T13:47:35;9.52;;;4.93;;
42192;SDS011;52467;40.114;18.306;2023-02-07T13:50:17;5.78;;;3.63;;
42192;SDS011;52467;40.114;18.306;2023-02-07T13:53:34;6.72;;;3.33;;
42192;SDS011;52467;40.114;18.306;2023-02-07T13:55:47;5.50;;;3.63;;
42192;SDS011;52467;40.114;18.306;2023-02-07T14:01:23;5.72;;;2.72;;
42192;SDS011;52467;40.114;18.306;2023-02-07T14:06:35;5.22;;;2.90;;
42192;SDS011;52467;40.114;18.306;2023-02-07T14:09:17;5.03;;;3.08;;
42192;SDS011;52467;40.114;18.306;2023-02-07T14:14:24;5.83;;;3.40;;
42192;SDS011;52467;40.114;18.306;2023-02-07T14:16:54;5.37;;;3.33;;
42192;SDS011;52467;40.114;18.306;2023-02-07T14:22:27;4.97;;;2.95;;
42192;SDS011;52467;40.114;18.306;2023-02-07T14:37:46;7.97;;;4.65;;
42192;SDS011;52467;40.114;18.306;2023-02-07T14:43:16;6.78;;;3.97;;
42192;SDS011;52467;40.114;18.306;2023-02-07T14:45:58;6.90;;;3.80;;
42192;SDS011;52467;40.114;18.306;2023-02-07T14:50:55;6.93;;;4.40;;
42192;SDS011;52467;40.114;18.306;2023-02-07T14:53:23;9.98;;;4.47;;
42192;SDS011;52467;40.114;18.306;2023-02-07T14:55:53;10.98;;;5.00;;
42192;SDS011;52467;40.114;18.306;2023-02-07T14:58:34;10.55;;;4.80;;
42192;SDS011;52467;40.114;18.306;2023-02-07T15:01:12;8.55;;;4.68;;
42192;SDS011;52467;40.114;18.306;2023-02-07T15:03:40;7.27;;;4.47;;
42192;SDS011;52467;40.114;18.306;2023-02-07T15:06:17;6.00;;;4.25;;
42192;SDS011;52467;40.114;18.306;2023-02-07T15:08:58;7.88;;;4.60;;
42192;SDS011;52467;40.114;18.306;2023-02-07T15:11:27;9.90;;;5.43;;
42192;SDS011;52467;40.114;18.306;2023-02-07T15:13:56;7.80;;;4.73;;
42192;SDS011;52467;40.114;18.306;2023-02-07T15:16:28;5.88;;;3.83;;
42192;SDS011;52467;40.114;18.306;2023-02-07T15:21:45;5.30;;;3.80;;
42192;SDS011;52467;40.114;18.306;2023-02-07T15:24:16;5.60;;;3.90;;
42192;SDS011;52467;40.114;18.306;2023-02-07T15:27:03;7.00;;;3.90;;
42192;SDS011;52467;40.114;18.306;2023-02-07T15:29:33;9.27;;;5.07;;
42192;SDS011;52467;40.114;18.306;2023-02-07T15:32:22;7.00;;;4.18;;
42192;SDS011;52467;40.114;18.306;2023-02-07T15:34:54;7.60;;;4.20;;
42192;SDS011;52467;40.114;18.306;2023-02-07T15:37:25;8.68;;;4.57;;
42192;SDS011;52467;40.114;18.306;2023-02-07T15:39:53;9.60;;;4.83;;
42192;SDS011;52467;40.114;18.306;2023-02-07T15:42:22;9.20;;;5.32;;
42192;SDS011;52467;40.114;18.306;2023-02-07T15:44:54;10.23;;;4.68;;
42192;SDS011;52467;40.114;18.306;2023-02-07T15:50:04;10.32;;;5.50;;
42192;SDS011;52467;40.114;18.306;2023-02-07T15:52:48;9.60;;;4.88;;
42192;SDS011;52467;40.114;18.306;2023-02-07T15:55:21;9.40;;;4.75;;
42192;SDS011;52467;40.114;18.306;2023-02-07T15:58:16;8.68;;;5.68;;
42192;SDS011;52467;40.114;18.306;2023-02-07T16:00:57;9.20;;;5.70;;
42192;SDS011;52467;40.114;18.306;2023-02-07T16:03:37;11.77;;;6.72;;
42192;SDS011;52467;40.114;18.306;2023-02-07T16:06:11;11.82;;;6.00;;
42192;SDS011;52467;40.114;18.306;2023-02-07T16:08:43;12.30;;;7.03;;
42192;SDS011;52467;40.114;18.306;2023-02-07T16:17:10;10.40;;;6.25;;
42192;SDS011;52467;40.114;18.306;2023-02-07T16:19:50;11.75;;;6.90;;
42192;SDS011;52467;40.114;18.306;2023-02-07T16:22:18;10.50;;;5.93;;
42192;SDS011;52467;40.114;18.306;2023-02-07T16:24:46;9.65;;;6.07;;
42192;SDS011;52467;40.114;18.306;2023-02-07T16:27:17;10.05;;;5.97;;
42192;SDS011;52467;40.114;18.306;2023-02-07T16:29:45;12.80;;;7.47;;
42192;SDS011;52467;40.114;18.306;2023-02-07T16:32:15;13.38;;;7.30;;
42192;SDS011;52467;40.114;18.306;2023-02-07T16:34:43;17.35;;;8.27;;
42192;SDS011;52467;40.114;18.306;2023-02-07T16:37:25;16.30;;;8.83;;
42192;SDS011;52467;40.114;18.306;2023-02-07T16:39:53;13.52;;;8.07;;
42192;SDS011;52467;40.114;18.306;2023-02-07T16:42:20;18.63;;;9.07;;
42192;SDS011;52467;40.114;18.306;2023-02-07T16:44:48;18.15;;;9.98;;
42192;SDS011;52467;40.114;18.306;2023-02-07T16:47:16;17.25;;;9.40;;
42192;SDS011;52467;40.114;18.306;2023-02-07T16:49:44;19.73;;;10.15;;
42192;SDS011;52467;40.114;18.306;2023-02-07T16:52:11;17.67;;;10.23;;
42192;SDS011;52467;40.114;18.306;2023-02-07T16:54:38;22.50;;;12.93;;
42192;SDS011;52467;40.114;18.306;2023-02-07T16:57:06;22.33;;;12.27;;
42192;SDS011;52467;40.114;18.306;2023-02-07T16:59:35;19.80;;;10.05;;
42192;SDS011;52467;40.114;18.306;2023-02-07T17:02:05;19.63;;;10.13;;
42192;SDS011;52467;40.114;18.306;2023-02-07T17:04:39;18.92;;;9.88;;
42192;SDS011;52467;40.114;18.306;2023-02-07T17:07:08;17.80;;;9.23;;
42192;SDS011;52467;40.114;18.306;2023-02-07T17:09:36;17.17;;;8.73;;
42192;SDS011;52467;40.114;18.306;2023-02-07T17:12:04;17.63;;;9.18;;
42192;SDS011;52467;40.114;18.306;2023-02-07T17:14:32;15.95;;;8.43;;
42192;SDS011;52467;40.114;18.306;2023-02-07T17:17:01;15.48;;;8.40;;
42192;SDS011;52467;40.114;18.306;2023-02-07T17:19:29;15.23;;;9.45;;
42192;SDS011;52467;40.114;18.306;2023-02-07T17:21:56;19.50;;;10.20;;
42192;SDS011;52467;40.114;18.306;2023-02-07T17:24:23;17.40;;;9.45;;
42192;SDS011;52467;40.114;18.306;2023-02-07T17:26:51;19.67;;;10.52;;
42192;SDS011;52467;40.114;18.306;2023-02-07T17:29:19;17.27;;;10.32;;
42192;SDS011;52467;40.114;18.306;2023-02-07T17:31:47;25.15;;;13.02;;
42192;SDS011;52467;40.114;18.306;2023-02-07T17:34:15;27.42;;;14.45;;
42192;SDS011;52467;40.114;18.306;2023-02-07T17:36:44;22.38;;;12.90;;
42192;SDS011;52467;40.114;18.306;2023-02-07T17:39:14;24.83;;;13.57;;
42192;SDS011;52467;40.114;18.306;2023-02-07T17:41:42;22.40;;;12.90;;
42192;SDS011;52467;40.114;18.306;2023-02-07T17:44:09;21.00;;;11.63;;
42192;SDS011;52467;40.114;18.306;2023-02-07T17:46:37;24.83;;;14.23;;